Gadsden, AL

9:05 PM CST on February 13, 2016 (GMT -0600)
Gadsden Municipal | | Change Station
CLOSE
Current Station
Airport
Location: Gadsden,
Elevation: 568 ft
Nearby Weather Stations

Elev 568 ft 33.97 °N, 86.09 °W | Updated 9 minutes ago

Clear
Clear
31 °F
Feels Like 28 °F
N
4
Wind Variable Wind from NNW

Today
High -- | Low -- °F
--% Chance of Precip.
Yesterday
High -- | Low -- °F
Precip. -- in
Pressure 30.48 in
Visibility 10.0 miles
Clouds Clear
Windchill 28 °F
Dew Point 11 °F
Humidity 43%
Rainfall 0.00 in
Snow Depth Not available.
6:31 AM 5:26 PM
Waxing Crescent, 37% visible
METAR KGAD 140256Z AUTO 34003KT 10SM CLR M01/M12 A3042 RMK AO2 SLP322 T10061117 58003 FZRANO
Pressure 30.48 in
Visibility 10.0 miles
Clouds Clear
Windchill 28 °F
Dew Point 11 °F
Humidity 43%
Rainfall 0.00 in
Snow Depth Not available.
6:31 AM 5:26 PM
Waxing Crescent, 37% visible
METAR KGAD 140256Z AUTO 34003KT 10SM CLR M01/M12 A3042 RMK AO2 SLP322 T10061117 58003 FZRANO

10-Day Weather Forecast

Almanac

Astronomy

Feb. 13, 2016 Rise Set
Actual Time
Civil Twilight
Nautical Twilight
Astronomical Twilight
Moon
Length of Visible Light
Length of Day
Tomorrow will be .
, % of the Moon is Illuminated

Today's Extremes

State Highs State Lows

Community

WunderPhotos

Upload Photos

1,892,731 photos uploaded!

WunderBlog® & News

Nearby

Air Quality

  Air Quality AQ Index Pollutant
Not available.

Snow Depth

Station Depth Elevation

Earthquake Activity

City Distance Mag. Time & Date
Minimum magnitude displayed is 2.5.

Coastal Water Temperatures

Place Temperature

Stations

Nearby Weather Stations

Station Location Temp. Windchill Dew Point Humidity Wind Precip. Elev Updated Type
                   

Watches & Warnings

There are currently no watches in effect.